createdAt,value
2023-04-12T02:54:30.483Z,12.00
2023-04-12T02:56:37.192Z,12.00
2023-04-12T02:58:40.877Z,12.00
2023-04-12T03:00:46.818Z,12.10
2023-04-12T03:03:09.095Z,12.10
2023-04-12T03:05:12.742Z,12.10
2023-04-12T03:07:17.161Z,12.10
2023-04-12T03:09:20.456Z,12.10
2023-04-12T03:11:27.336Z,12.00
2023-04-12T03:13:30.810Z,12.00
2023-04-12T03:26:06.337Z,12.10
2023-04-12T03:28:11.433Z,12.10
2023-04-12T03:30:15.519Z,12.20
2023-04-12T03:32:20.947Z,12.10
2023-04-12T03:34:24.243Z,12.20
2023-04-12T03:36:29.619Z,12.20
2023-04-12T03:38:33.996Z,12.20
2023-04-12T03:40:37.543Z,12.10
2023-04-12T03:42:41.040Z,12.10
2023-04-12T03:53:02.761Z,12.10
2023-04-12T03:55:07.907Z,12.10
2023-04-12T03:57:11.912Z,12.00
2023-04-12T03:59:26.860Z,12.10
2023-04-12T04:01:30.680Z,12.10
2023-04-12T04:03:35.023Z,12.00
2023-04-12T04:05:38.974Z,12.00
2023-04-12T04:07:42.672Z,12.00
2023-04-12T04:09:47.659Z,12.00
2023-04-12T04:11:51.793Z,12.00
2023-04-12T04:13:55.799Z,11.90
2023-04-12T04:16:03.513Z,11.90
2023-04-12T04:18:07.182Z,11.90
2023-04-12T04:20:13.828Z,11.90
2023-04-12T04:22:17.880Z,11.90
2023-04-12T04:24:22.651Z,12.00
2023-04-12T04:26:32.622Z,11.90
2023-04-12T04:28:37.481Z,11.90
2023-04-12T04:30:41.322Z,11.90
2023-04-12T04:34:45.684Z,11.90
2023-04-12T04:36:49.466Z,11.90
2023-04-12T04:38:53.055Z,11.90
2023-04-12T04:40:56.722Z,11.90
2023-04-12T04:43:41.183Z,11.90
2023-04-12T04:45:48.930Z,11.90
2023-04-12T04:47:53.936Z,11.90
2023-04-12T04:50:14.405Z,11.90
2023-04-12T04:52:18.430Z,11.90
2023-04-12T05:02:31.919Z,11.90
2023-04-12T05:04:36.235Z,12.00
2023-04-12T05:06:39.804Z,12.00
2023-04-12T05:08:43.505Z,12.00
2023-04-12T05:11:42.566Z,12.00
2023-04-12T05:13:46.767Z,12.00
2023-04-12T05:15:50.124Z,12.00
2023-04-12T05:17:54.974Z,12.10
2023-04-12T05:19:59.444Z,12.10
2023-04-12T05:22:03.328Z,12.10
2023-04-12T05:24:07.356Z,12.10
2023-04-12T05:26:10.961Z,12.10
2023-04-12T05:28:27.883Z,12.10
2023-04-12T05:30:31.778Z,12.20
2023-04-12T05:32:49.086Z,12.20
2023-04-12T05:37:30.993Z,12.30
2023-04-12T05:39:35.429Z,12.30
2023-04-12T05:41:40.735Z,12.30
2023-04-12T05:43:44.785Z,12.30
2023-04-12T05:45:50.156Z,12.30
2023-04-12T05:47:53.802Z,12.20
2023-04-12T05:49:58.840Z,12.20
2023-04-12T05:52:03.121Z,12.10
2023-04-12T05:54:09.677Z,12.10
2023-04-12T05:56:13.585Z,12.10
2023-04-12T05:58:38.034Z,12.10
2023-04-12T06:00:42.511Z,12.00
2023-04-12T06:07:37.014Z,12.00
2023-04-12T06:14:00.866Z,12.00
2023-04-12T06:16:25.452Z,12.00
2023-04-12T06:19:11.173Z,11.90
2023-04-12T06:21:16.194Z,11.90
2023-04-12T06:23:19.915Z,12.00
2023-04-12T06:25:24.108Z,11.90
2023-04-12T06:27:27.805Z,12.00
2023-04-12T06:29:52.548Z,11.90
2023-04-12T06:32:04.036Z,11.90
2023-04-12T06:34:11.362Z,11.90
2023-04-12T06:36:29.821Z,11.90
2023-04-12T06:38:33.398Z,11.90
2023-04-12T06:40:37.194Z,11.90
2023-04-12T06:42:47.401Z,11.90
2023-04-12T06:44:51.680Z,11.90
2023-04-12T06:54:51.272Z,12.00
2023-04-12T06:59:38.566Z,12.00
2023-04-12T07:01:54.031Z,12.00
2023-04-12T07:04:06.874Z,12.10
2023-04-12T07:06:25.066Z,12.10
2023-04-12T07:08:31.729Z,12.10
2023-04-12T07:11:35.440Z,12.10
2023-04-12T07:13:40.071Z,12.10
2023-04-12T07:15:44.288Z,12.10
2023-04-12T07:20:20.662Z,12.20
2023-04-12T07:22:25.866Z,12.20
2023-04-12T07:24:31.615Z,12.20
2023-04-12T07:26:36.921Z,12.20
2023-04-12T07:28:41.793Z,12.20
2023-04-12T07:33:18.407Z,12.30
2023-04-12T07:38:07.559Z,12.30
2023-04-12T07:40:18.738Z,12.30
2023-04-12T07:44:41.569Z,12.30
2023-04-12T07:49:21.084Z,12.40
2023-04-12T07:53:42.957Z,12.50
2023-04-12T08:04:22.987Z,12.70
2023-04-12T08:14:23.816Z,12.90
2023-04-12T08:19:12.167Z,13.00
2023-04-12T08:29:36.439Z,13.30
2023-04-12T08:31:47.654Z,13.30
2023-04-12T08:33:53.868Z,13.20
2023-04-12T08:46:52.386Z,13.40
2023-04-12T09:04:25.382Z,13.50
2023-04-12T09:06:31.031Z,13.50
2023-04-12T09:10:56.963Z,13.50
2023-04-12T09:13:02.325Z,13.40
2023-04-12T09:23:33.240Z,13.40
2023-04-12T09:25:52.183Z,13.40
2023-04-12T09:30:24.665Z,13.50
2023-04-12T09:32:28.725Z,13.60
2023-04-12T09:34:36.769Z,13.60
2023-04-12T09:36:42.465Z,13.60
2023-04-12T09:39:05.187Z,13.70
2023-04-12T09:41:27.179Z,13.70
2023-04-12T09:43:39.971Z,13.80
2023-04-12T09:45:45.064Z,13.80
2023-04-12T09:48:01.355Z,13.80
2023-04-12T09:52:32.340Z,13.70
2023-04-12T09:54:56.283Z,13.70
2023-04-12T09:57:00.495Z,13.80
2023-04-12T09:59:19.605Z,13.80
2023-04-12T10:03:46.175Z,13.80
2023-04-12T10:05:50.071Z,13.80
2023-04-12T10:07:55.292Z,13.80
2023-04-12T10:10:00.251Z,13.70
2023-04-12T10:12:04.468Z,13.70
2023-04-12T10:14:08.670Z,13.80
2023-04-12T10:16:12.192Z,13.80
2023-04-12T10:18:20.144Z,13.80
2023-04-12T10:20:28.213Z,13.80
2023-04-12T10:22:33.413Z,13.90
2023-04-12T10:24:40.681Z,14.00
2023-04-12T10:27:04.291Z,14.00
2023-04-12T10:29:29.916Z,14.00
2023-04-12T10:31:37.373Z,14.00
2023-04-12T10:33:43.327Z,14.10
2023-04-12T10:35:57.836Z,14.10
2023-04-12T10:38:04.201Z,14.10
2023-04-12T10:40:09.438Z,14.00
2023-04-12T10:42:23.210Z,14.10
2023-04-12T10:44:27.612Z,14.10
2023-04-12T10:51:42.037Z,14.30
2023-04-12T10:53:46.933Z,14.40
2023-04-12T10:55:50.919Z,14.50
2023-04-12T10:57:54.841Z,14.50
2023-04-12T10:59:59.744Z,14.50
2023-04-12T11:02:13.104Z,14.60
2023-04-12T11:04:18.728Z,14.50
2023-04-12T11:06:27.422Z,14.60
2023-04-12T11:08:31.521Z,14.60
2023-04-12T11:10:42.773Z,14.60
2023-04-12T11:12:50.723Z,14.70
2023-04-12T11:14:54.744Z,14.60
2023-04-12T11:17:23.935Z,14.70
2023-04-12T11:19:28.015Z,14.70
2023-04-12T11:21:32.994Z,14.70
2023-04-12T11:25:39.565Z,14.80
2023-04-12T11:27:52.699Z,14.90
2023-04-12T11:29:58.085Z,14.90
2023-04-12T11:34:20.229Z,14.90
2023-04-12T11:36:28.341Z,14.90
2023-04-12T11:38:33.904Z,15.00
2023-04-12T11:40:37.669Z,15.10
2023-04-12T11:42:42.206Z,15.10
2023-04-12T12:05:49.154Z,15.30
2023-04-12T12:07:54.777Z,15.30
2023-04-12T12:09:58.388Z,15.30
2023-04-12T12:12:03.364Z,15.30
2023-04-12T12:14:08.409Z,15.40
2023-04-12T12:16:13.466Z,15.50
2023-04-12T12:18:16.975Z,15.60
2023-04-12T12:20:24.659Z,15.60
2023-04-12T12:22:28.620Z,15.50
2023-04-12T12:24:35.426Z,15.60
2023-04-12T12:26:40.655Z,15.70
2023-04-12T12:28:44.974Z,15.70
2023-04-12T12:30:48.622Z,15.70
2023-04-12T12:32:53.403Z,15.80
2023-04-12T12:34:57.747Z,15.80
2023-04-12T12:37:01.786Z,15.80
2023-04-12T12:39:07.581Z,15.70
2023-04-12T12:41:19.308Z,15.70
2023-04-12T12:43:24.082Z,15.80
2023-04-12T12:48:00.675Z,15.80
2023-04-12T12:50:10.153Z,15.90
2023-04-12T12:52:15.250Z,15.70
2023-04-12T12:54:38.693Z,15.70
2023-04-12T12:56:46.516Z,15.80
2023-04-12T12:58:52.651Z,15.80
2023-04-12T13:00:56.456Z,15.80
2023-04-12T13:03:00.505Z,15.80
2023-04-12T13:05:05.317Z,15.70
2023-04-12T13:07:09.639Z,15.60
2023-04-12T13:09:13.163Z,15.60
2023-04-12T13:11:18.409Z,15.50
2023-04-12T13:13:25.680Z,15.50
2023-04-12T13:15:29.940Z,15.40
2023-04-12T13:17:33.546Z,15.50
2023-04-12T13:19:37.095Z,15.60
2023-04-12T13:21:48.714Z,15.70
2023-04-12T13:23:56.260Z,15.70
2023-04-12T13:25:59.924Z,15.80
2023-04-12T13:28:04.100Z,15.90
2023-04-12T13:30:10.588Z,16.00
2023-04-12T13:32:14.389Z,16.10
2023-04-12T13:34:18.055Z,16.30
2023-04-12T13:36:26.823Z,16.30
2023-04-12T13:38:30.126Z,16.30
2023-04-12T13:40:33.509Z,16.30
2023-04-12T13:42:37.031Z,16.30
2023-04-12T13:44:58.078Z,16.40
2023-04-12T13:47:25.993Z,16.40
2023-04-12T13:49:33.471Z,16.50
2023-04-12T13:51:48.301Z,16.40
2023-04-12T13:53:51.962Z,16.40
2023-04-12T13:55:55.430Z,16.50
2023-04-12T13:57:58.804Z,16.70
2023-04-12T14:00:02.360Z,16.90
2023-04-12T14:02:06.175Z,17.00
2023-04-12T14:04:12.669Z,17.20
2023-04-12T14:06:16.258Z,17.30
2023-04-12T14:08:19.575Z,17.40
2023-04-12T14:10:23.296Z,17.50
2023-04-12T14:12:26.805Z,17.50
2023-04-12T14:14:35.654Z,17.50
2023-04-12T14:16:39.241Z,17.50
2023-04-12T14:18:42.807Z,17.50
2023-04-12T14:20:49.477Z,17.50
2023-04-12T14:22:54.671Z,17.50
2023-04-12T14:24:58.353Z,17.60
2023-04-12T14:27:02.587Z,17.50
2023-04-12T14:29:06.492Z,17.50
2023-04-12T14:31:10.367Z,17.40
2023-04-12T14:33:14.159Z,17.20
2023-04-12T14:35:18.428Z,17.10
2023-04-12T14:37:23.430Z,17.10
2023-04-12T14:39:28.345Z,17.00
2023-04-12T14:41:31.932Z,17.00
2023-04-12T14:43:35.696Z,16.90
2023-04-12T14:45:39.289Z,16.90
2023-04-12T14:47:42.806Z,16.80
2023-04-12T14:49:48.061Z,16.80
2023-04-12T14:51:51.441Z,16.80
2023-04-12T14:53:57.046Z,16.80
2023-04-12T14:56:02.652Z,16.80
2023-04-12T14:58:06.512Z,16.70
2023-04-12T15:00:15.495Z,16.70
2023-04-12T15:02:20.993Z,16.70
2023-04-12T15:04:26.071Z,16.70
2023-04-12T15:06:33.959Z,16.80
2023-04-12T15:08:41.885Z,16.80
2023-04-12T15:10:47.302Z,17.00
2023-04-12T15:12:51.128Z,17.30
2023-04-12T15:14:57.746Z,17.70
2023-04-12T15:17:01.316Z,18.20
2023-04-12T15:19:13.076Z,18.90
2023-04-12T15:21:21.493Z,19.30
2023-04-12T15:30:11.090Z,18.60
2023-04-12T15:32:15.359Z,18.30
2023-04-12T15:34:19.616Z,18.10
2023-04-12T15:36:35.589Z,17.90
2023-04-12T15:38:42.431Z,17.90
2023-04-12T15:40:46.361Z,17.90
2023-04-12T15:42:50.196Z,17.90
2023-04-12T15:44:53.915Z,18.00
2023-04-12T15:47:10.344Z,18.30
2023-04-12T15:49:15.070Z,19.00
2023-04-12T15:51:18.684Z,19.40
2023-04-12T15:53:23.792Z,19.30
2023-04-12T15:55:27.330Z,19.30
2023-04-12T15:57:30.898Z,19.20
2023-04-12T15:59:34.499Z,19.00
2023-04-12T16:01:38.222Z,18.90
2023-04-12T16:03:47.368Z,18.80
2023-04-12T16:05:53.935Z,18.90
2023-04-12T16:07:58.146Z,19.20
2023-04-12T16:10:03.484Z,19.60
2023-04-12T16:12:07.612Z,19.90
2023-04-12T16:14:12.004Z,20.10
2023-04-12T16:16:17.636Z,20.50
2023-04-12T16:18:21.452Z,20.80
2023-04-12T16:20:26.574Z,21.10
2023-04-12T16:22:30.272Z,21.30
2023-04-12T16:24:33.968Z,21.10
2023-04-12T16:26:37.604Z,20.80
2023-04-12T16:28:44.331Z,20.30
2023-04-12T16:30:49.741Z,20.10
2023-04-12T16:32:54.130Z,20.40
2023-04-12T16:34:58.096Z,20.90
2023-04-12T16:37:03.692Z,21.50
2023-04-12T16:39:07.445Z,21.80
2023-04-12T16:41:10.874Z,21.60
2023-04-12T16:43:14.649Z,21.10
2023-04-12T16:45:18.408Z,20.50
2023-04-12T16:47:22.130Z,20.20
2023-04-12T16:49:25.965Z,19.70
2023-04-12T16:51:36.847Z,19.30
2023-04-12T16:53:42.803Z,18.90
2023-04-12T16:55:47.470Z,18.70
2023-04-12T16:57:53.257Z,18.50
2023-04-12T16:59:57.566Z,18.30
2023-04-12T17:02:01.760Z,18.20
2023-04-12T17:04:05.465Z,18.10
2023-04-12T17:06:09.174Z,17.90
2023-04-12T17:08:13.098Z,17.70
2023-04-12T17:10:18.549Z,17.60
2023-04-12T17:12:22.250Z,17.50
2023-04-12T17:14:26.009Z,17.30
2023-04-12T17:16:31.017Z,16.90
2023-04-12T17:18:34.854Z,16.80
2023-04-12T17:20:38.230Z,16.60
2023-04-12T17:22:42.297Z,16.60
2023-04-12T17:24:46.427Z,16.50
2023-04-12T17:26:51.754Z,16.50
2023-04-12T17:28:56.194Z,16.40
2023-04-12T17:30:59.954Z,16.50
2023-04-12T17:33:03.706Z,16.50
2023-04-12T17:35:08.315Z,16.50
2023-04-12T17:37:11.937Z,16.60
2023-04-12T17:39:15.545Z,16.60
2023-04-12T17:41:21.578Z,16.60
2023-04-12T17:43:26.602Z,16.60
2023-04-12T17:45:30.417Z,16.60
2023-04-12T17:47:34.699Z,16.60
2023-04-12T17:49:38.527Z,16.50
2023-04-12T17:51:41.948Z,16.50
2023-04-12T17:53:45.912Z,16.50
2023-04-12T17:55:50.692Z,16.50
2023-04-12T17:57:54.572Z,16.50
2023-04-12T18:00:01.219Z,16.40
2023-04-12T18:02:04.875Z,16.30
2023-04-12T18:04:08.795Z,16.20
2023-04-12T18:06:13.596Z,16.30
2023-04-12T18:08:17.842Z,16.30
2023-04-12T18:10:25.867Z,16.30
2023-04-12T18:12:29.476Z,16.20
2023-04-12T18:14:33.226Z,16.10
2023-04-12T18:16:38.493Z,16.10
2023-04-12T18:18:42.198Z,16.10
2023-04-12T18:20:47.605Z,16.00
2023-04-12T18:22:51.186Z,15.90
2023-04-12T18:24:55.306Z,15.80
2023-04-12T18:27:00.248Z,15.70
2023-04-12T18:29:03.848Z,15.60
2023-04-12T18:31:07.427Z,15.50
2023-04-12T18:33:12.506Z,15.50
2023-04-12T18:35:16.526Z,15.50
2023-04-12T18:37:20.233Z,15.50
2023-04-12T18:39:23.939Z,15.60
2023-04-12T18:41:27.900Z,15.50
2023-04-12T18:43:31.786Z,15.40
2023-04-12T18:45:39.504Z,15.30
2023-04-12T18:47:44.960Z,15.00
2023-04-12T18:49:50.748Z,14.70
2023-04-12T18:51:58.271Z,14.60
2023-04-12T18:54:03.028Z,14.40
2023-04-12T18:56:10.290Z,14.00
2023-04-12T18:58:13.675Z,13.80
2023-04-12T19:00:18.565Z,13.70
2023-04-12T19:02:34.458Z,13.60
2023-04-12T19:04:39.246Z,13.40
2023-04-12T19:06:44.721Z,13.20
2023-04-12T19:08:49.838Z,12.90
2023-04-12T19:10:53.532Z,12.70
2023-04-12T19:13:21.641Z,12.60
2023-04-12T19:15:25.152Z,12.30
2023-04-12T19:17:28.825Z,12.20
2023-04-12T19:19:32.359Z,12.10
2023-04-12T19:21:35.836Z,12.00
2023-04-12T19:23:40.812Z,11.90
2023-04-12T19:25:44.334Z,11.80
2023-04-12T19:27:47.962Z,11.70
2023-04-12T19:29:52.359Z,11.60
2023-04-12T19:31:56.302Z,11.50
2023-04-12T19:33:59.902Z,11.60
2023-04-12T19:36:15.542Z,11.60
2023-04-12T19:38:20.429Z,11.60
2023-04-12T19:40:25.617Z,11.60
2023-04-12T19:42:29.478Z,11.70
2023-04-12T19:44:33.201Z,11.70
2023-04-12T19:46:39.142Z,11.70
2023-04-12T19:48:42.831Z,11.70
2023-04-12T19:50:48.534Z,11.70
2023-04-12T19:52:52.375Z,11.80
2023-04-12T19:54:57.214Z,11.80
2023-04-12T19:57:03.358Z,11.80
2023-04-12T19:59:11.020Z,11.80
2023-04-12T20:01:16.146Z,11.90
2023-04-12T20:03:21.904Z,12.00
2023-04-12T20:05:25.815Z,11.90
2023-04-12T20:07:29.905Z,11.90
2023-04-12T20:09:33.590Z,11.80
2023-04-12T20:11:37.386Z,11.60
2023-04-12T20:13:42.537Z,11.50
2023-04-12T20:15:46.255Z,11.40
2023-04-12T20:18:32.956Z,11.30
2023-04-12T20:20:36.581Z,11.20
2023-04-12T20:22:41.268Z,11.20
2023-04-12T20:24:47.508Z,11.20
2023-04-12T20:26:51.742Z,11.10
2023-04-12T20:28:57.088Z,11.10
2023-04-12T20:31:01.019Z,11.10
2023-04-12T20:33:05.406Z,11.00
2023-04-12T20:35:09.766Z,11.00
2023-04-12T20:37:15.915Z,10.90
2023-04-12T20:39:19.440Z,10.90
2023-04-12T20:41:23.118Z,10.90
2023-04-12T20:43:27.412Z,10.90
2023-04-12T20:45:32.858Z,10.80
2023-04-12T20:47:38.173Z,10.80
2023-04-12T20:49:42.574Z,10.80
2023-04-12T20:51:46.921Z,10.70
2023-04-12T20:54:03.088Z,10.80
2023-04-12T20:56:07.366Z,10.80
2023-04-12T20:58:12.295Z,10.80
2023-04-12T21:00:18.066Z,10.80
2023-04-12T21:02:27.099Z,10.70
2023-04-12T21:04:32.424Z,10.80
2023-04-12T21:06:37.537Z,10.80
2023-04-12T21:08:43.638Z,10.90
2023-04-12T21:10:53.372Z,10.90
2023-04-12T21:12:58.448Z,10.90
2023-04-12T21:15:03.524Z,10.80
2023-04-12T21:17:07.456Z,10.80
2023-04-12T21:19:13.073Z,10.70
2023-04-12T21:21:16.552Z,10.70
2023-04-12T21:23:20.154Z,10.70
2023-04-12T21:25:26.008Z,10.70
2023-04-12T21:27:30.015Z,10.70
2023-04-12T21:29:34.603Z,10.70
2023-04-12T21:31:41.746Z,10.60
2023-04-12T21:33:45.598Z,10.50
2023-04-12T21:35:50.811Z,10.50
2023-04-12T21:37:54.380Z,10.50
2023-04-12T21:39:58.177Z,10.40
2023-04-12T21:42:01.767Z,10.50
2023-04-12T21:44:12.558Z,10.40
2023-04-12T21:46:18.407Z,10.40
2023-04-12T21:48:22.314Z,10.40
2023-04-12T21:50:26.123Z,10.30
2023-04-12T21:52:31.256Z,10.40
2023-04-12T21:54:36.945Z,10.40
2023-04-12T21:56:40.454Z,10.50
2023-04-12T21:58:44.458Z,10.60
2023-04-12T22:00:48.467Z,10.60
2023-04-12T22:03:05.632Z,10.80
2023-04-12T22:05:09.891Z,10.90
2023-04-12T22:07:17.768Z,10.90
2023-04-12T22:09:24.790Z,11.00
2023-04-12T22:11:29.812Z,11.10
2023-04-12T22:13:35.109Z,11.20
2023-04-12T22:15:38.683Z,11.20
2023-04-12T22:17:42.672Z,11.30
2023-04-12T22:19:46.445Z,11.20
2023-04-12T22:21:49.963Z,11.20
2023-04-12T22:24:13.685Z,11.20
2023-04-12T22:26:18.659Z,11.20
2023-04-12T22:28:22.500Z,11.10
2023-04-12T22:30:26.181Z,11.10
2023-04-12T22:32:32.282Z,11.10
2023-04-12T22:35:13.698Z,11.00
2023-04-12T22:37:17.433Z,11.00
2023-04-12T22:39:21.341Z,11.00
2023-04-12T22:41:46.941Z,11.00
2023-04-12T22:43:50.693Z,10.90
2023-04-12T22:45:54.583Z,10.90
2023-04-12T22:47:58.077Z,10.90
2023-04-12T22:50:03.412Z,10.80
2023-04-12T22:52:07.263Z,10.70
2023-04-12T22:54:10.792Z,10.60
2023-04-12T22:56:14.659Z,10.60
2023-04-12T22:58:19.790Z,10.60
2023-04-12T23:00:25.120Z,10.50
2023-04-12T23:02:35.046Z,10.50
2023-04-12T23:04:38.843Z,10.40
2023-04-12T23:06:43.162Z,10.40
2023-04-12T23:08:46.906Z,10.30
2023-04-12T23:10:50.985Z,10.20
2023-04-12T23:12:54.890Z,10.10
2023-04-12T23:15:00.262Z,10.10
2023-04-12T23:17:03.979Z,10.10
2023-04-12T23:19:07.912Z,10.00
2023-04-12T23:21:12.205Z,10.00
2023-04-12T23:23:15.944Z,9.90
2023-04-12T23:35:29.823Z,9.70
2023-04-12T23:37:34.273Z,9.80
2023-04-12T23:39:37.921Z,9.70
2023-04-12T23:41:42.239Z,9.70
2023-04-12T23:43:57.409Z,9.70
2023-04-12T23:46:01.192Z,9.60
2023-04-12T23:48:05.690Z,9.60
2023-04-12T23:50:10.001Z,9.60
2023-04-12T23:52:15.013Z,9.60
2023-04-12T23:54:18.771Z,9.60
